Time;durP1;ratioP1;P1;durP2;ratioP2;P2;SDS_P1;SDS_P2;PMS_P1;PMS_P2;Temp;Humidity;BMP_temperature;BMP_pressure;BME280_temperature;BME280_humidity;BME280_pressure;Samples;Min_cycle;Max_cycle;Signal;HPM_P1;HPM_P2
2024/01/03 00:00:43;;;;;;;;;;;;;;;11.37;70.06;96028.47;4249440;27;5640;-62
2024/01/03 00:02:48;;;;;;;;;;;;;;;11.35;70.10;96027.88;4238805;27;5784;-62
2024/01/03 00:04:51;;;;;;;;;;;;;;;11.36;70.36;96035.59;4244380;27;5733;-62
2024/01/03 00:06:53;;;;;;;;;;;;;;;11.36;70.21;96025.00;4238216;27;5654;-62
2024/01/03 00:08:55;;;;;;;;;;;;;;;11.36;70.19;96026.84;4236542;27;5815;-62
2024/01/03 00:11:01;;;;;;;;;;;;;;;11.38;70.16;96022.16;4235980;27;5646;-62
2024/01/03 00:13:05;;;;;;;;;;;;;;;11.38;69.88;96030.91;4236150;27;6334;-62
2024/01/03 00:15:37;;;;;;;;;;;;;;;11.41;69.91;96031.47;4236036;27;5729;-62
2024/01/03 00:17:44;;;;;;;;;;;;;;;11.43;69.91;96030.22;4239484;27;5635;-62
2024/01/03 00:19:54;;;;;;;;;;;;;;;11.44;69.88;96031.03;4244244;27;5766;-62
2024/01/03 00:21:57;;;;;;;;;;;;;;;11.44;69.97;96034.53;4242511;27;6616;-62
2024/01/03 00:24:04;;;;;;;;;;;;;;;11.45;69.84;96030.03;4244677;27;5764;-62
2024/01/03 00:26:08;;;;;;;;;;;;;;;11.46;69.81;96043.06;4244238;27;5704;-62
2024/01/03 00:28:12;;;;;;;;;;;;;;;11.48;69.79;96037.53;4239480;27;5638;-63
2024/01/03 00:30:16;;;;;;;;;;;;;;;11.49;69.68;96039.97;4251298;27;5708;-62
2024/01/03 00:32:22;;;;;;;;;;;;;;;11.50;69.73;96054.00;4235223;27;5713;-62
2024/01/03 00:34:39;;;;;;;;;;;;;;;11.51;69.78;96042.38;4235453;27;5725;-63
2024/01/03 00:36:44;;;;;;;;;;;;;;;11.51;69.92;96035.25;4235455;28;6327;-63
2024/01/03 00:38:47;;;;;;;;;;;;;;;11.52;69.62;96031.59;4235359;28;5761;-63
2024/01/03 00:40:52;;;;;;;;;;;;;;;11.53;69.73;96027.91;4237118;27;5824;-63
2024/01/03 00:42:55;;;;;;;;;;;;;;;11.55;69.80;96028.53;4243910;27;5753;-63
2024/01/03 00:44:57;;;;;;;;;;;;;;;11.57;69.65;96031.75;4234982;28;5678;-63
2024/01/03 00:47:01;;;;;;;;;;;;;;;11.59;69.83;96028.88;4241821;27;5763;-63
2024/01/03 00:49:04;;;;;;;;;;;;;;;11.60;69.52;96026.03;4244179;27;5740;-63
2024/01/03 00:51:08;;;;;;;;;;;;;;;11.60;69.41;96023.38;4243568;27;5612;-63
2024/01/03 00:53:12;;;;;;;;;;;;;;;11.62;69.44;96018.66;4234708;28;5666;-63
2024/01/03 00:55:15;;;;;;;;;;;;;;;11.63;69.67;96015.00;4243559;27;5923;-62
2024/01/03 00:57:19;;;;;;;;;;;;;;;11.63;69.61;96020.28;4235052;28;5099;-62
2024/01/03 00:59:22;;;;;;;;;;;;;;;11.65;69.49;96015.56;4237173;27;5673;-62
2024/01/03 01:01:26;;;;;;;;;;;;;;;11.63;69.36;96022.94;4243831;27;5740;-62
2024/01/03 01:03:29;;;;;;;;;;;;;;;11.62;69.09;96016.00;4240248;27;5634;-62
2024/01/03 01:05:32;;;;;;;;;;;;;;;11.62;69.13;96016.00;4238601;27;5625;-62
2024/01/03 01:07:35;;;;;;;;;;;;;;;11.63;69.28;96019.47;4247894;27;5659;-62
2024/01/03 01:09:40;;;;;;;;;;;;;;;11.63;69.05;96016.81;4238962;27;5628;-62
2024/01/03 01:11:42;;;;;;;;;;;;;;;11.63;69.18;96008.88;4243532;27;5940;-62
2024/01/03 01:13:45;;;;;;;;;;;;;;;11.62;69.18;96016.00;4238084;27;5646;-62
2024/01/03 01:15:48;;;;;;;;;;;;;;;11.65;69.14;96004.19;4242969;27;5629;-62
2024/01/03 01:17:51;;;;;;;;;;;;;;;11.64;69.28;96008.66;4243193;27;5755;-63
2024/01/03 01:19:54;;;;;;;;;;;;;;;11.66;69.04;96016.38;4251948;27;5752;-63
2024/01/03 01:21:57;;;;;;;;;;;;;;;11.64;69.02;96024.53;4244488;27;5896;-62
2024/01/03 01:23:59;;;;;;;;;;;;;;;11.65;69.18;96004.19;4242116;27;5684;-62
2024/01/03 01:26:03;;;;;;;;;;;;;;;11.65;68.80;96010.28;4252044;27;5636;-62
2024/01/03 01:28:07;;;;;;;;;;;;;;;11.65;69.04;96007.63;4234872;27;5673;-61
2024/01/03 01:30:11;;;;;;;;;;;;;;;11.66;68.74;96003.97;4234707;28;5658;-62
2024/01/03 01:32:14;;;;;;;;;;;;;;;11.65;68.61;96006.81;4235605;27;5653;-61
2024/01/03 01:34:17;;;;;;;;;;;;;;;11.62;68.60;96005.44;4241463;27;5670;-62
2024/01/03 01:36:21;;;;;;;;;;;;;;;11.63;68.62;96001.75;4243313;27;5845;-63
2024/01/03 01:38:23;;;;;;;;;;;;;;;11.63;68.69;95999.09;4236758;27;5645;-62
2024/01/03 01:40:25;;;;;;;;;;;;;;;11.64;68.63;95994.63;4240486;27;5634;-64
2024/01/03 01:42:30;;;;;;;;;;;;;;;11.66;68.58;95996.03;4243049;27;5642;-63
2024/01/03 01:44:33;;;;;;;;;;;;;;;11.66;68.43;95993.38;4234534;27;5634;-62
2024/01/03 01:46:39;;;;;;;;;;;;;;;11.68;68.53;95998.47;4243264;27;5721;-62
2024/01/03 01:48:42;;;;;;;;;;;;;;;11.69;68.54;95997.44;4236748;27;5646;-62
2024/01/03 01:50:46;;;;;;;;;;;;;;;11.68;68.43;95993.16;4242230;27;5738;-63
2024/01/03 01:52:49;;;;;;;;;;;;;;;11.69;68.34;95999.28;4239722;27;5735;-63
2024/01/03 01:54:52;;;;;;;;;;;;;;;11.66;68.04;96005.78;4242398;27;5628;-62
2024/01/03 01:56:56;;;;;;;;;;;;;;;11.66;68.08;96006.63;4242557;27;5621;-63
2024/01/03 01:59:01;;;;;;;;;;;;;;;11.69;68.20;96009.88;4242768;27;5621;-63
2024/01/03 02:01:04;;;;;;;;;;;;;;;11.68;68.11;96001.09;4243370;27;5646;-62
2024/01/03 02:03:09;;;;;;;;;;;;;;;11.70;67.96;95993.75;4241764;27;5829;-61
2024/01/03 02:05:14;;;;;;;;;;;;;;;11.73;67.88;96000.44;4242319;27;5628;-62
2024/01/03 02:07:17;;;;;;;;;;;;;;;11.74;67.93;95994.13;4235817;27;5674;-62
2024/01/03 02:09:21;;;;;;;;;;;;;;;11.75;67.72;95993.09;4249032;27;5642;-62
2024/01/03 02:11:24;;;;;;;;;;;;;;;11.75;67.80;95998.38;4236522;27;5654;-62
2024/01/03 02:13:26;;;;;;;;;;;;;;;11.75;67.77;95991.25;4248266;27;5658;-62
2024/01/03 02:15:30;;;;;;;;;;;;;;;11.74;67.75;95983.53;4237271;27;5628;-62
2024/01/03 02:17:35;;;;;;;;;;;;;;;11.74;67.47;95994.13;4242473;27;5616;-61
2024/01/03 02:19:38;;;;;;;;;;;;;;;11.73;67.69;95979.25;4251177;27;6297;-62
2024/01/03 02:21:43;;;;;;;;;;;;;;;11.70;67.35;95977.06;4246295;27;5673;-62
2024/01/03 02:23:46;;;;;;;;;;;;;;;11.71;67.42;95976.03;4244139;27;5646;-62
2024/01/03 02:25:49;;;;;;;;;;;;;;;11.69;67.57;95978.91;4242670;27;5789;-62
2024/01/03 02:27:52;;;;;;;;;;;;;;;11.70;67.31;95982.34;4242116;27;6021;-62
2024/01/03 02:29:54;;;;;;;;;;;;;;;11.70;66.92;95983.16;4249177;27;5684;-62
2024/01/03 02:31:57;;;;;;;;;;;;;;;11.70;66.85;95985.00;4249896;27;5680;-62
2024/01/03 02:34:00;;;;;;;;;;;;;;;11.69;66.93;95994.78;4234974;27;5674;-62
2024/01/03 02:36:04;;;;;;;;;;;;;;;11.70;66.88;95985.00;4241810;27;5621;-61
2024/01/03 02:38:08;;;;;;;;;;;;;;;11.69;66.79;95973.59;4241965;27;5699;-63
2024/01/03 02:40:12;;;;;;;;;;;;;;;11.70;66.80;95979.72;4242978;27;5782;-63
2024/01/03 02:42:15;;;;;;;;;;;;;;;11.70;66.68;95985.00;4240821;27;5667;-62
2024/01/03 02:44:19;;;;;;;;;;;;;;;11.74;66.71;95986.16;4241801;27;5680;-61
2024/01/03 02:46:24;;;;;;;;;;;;;;;11.71;66.42;95986.63;4236071;27;5638;-62
2024/01/03 02:48:27;;;;;;;;;;;;;;;11.71;66.46;95992.72;4241845;27;5851;-62
2024/01/03 02:50:31;;;;;;;;;;;;;;;11.72;66.32;96004.94;4247295;27;5645;-62
2024/01/03 02:52:34;;;;;;;;;;;;;;;11.72;66.31;96002.28;4236982;27;5613;-62
2024/01/03 02:54:39;;;;;;;;;;;;;;;11.72;66.13;96004.13;4242153;27;5860;-62
2024/01/03 02:56:42;;;;;;;;;;;;;;;11.73;65.94;96005.75;4244093;27;5629;-62
2024/01/03 02:58:45;;;;;;;;;;;;;;;11.73;65.82;96008.38;4236639;27;5761;-62
2024/01/03 03:00:48;;;;;;;;;;;;;;;11.72;66.09;96009.41;4241965;27;5875;-62
2024/01/03 03:02:51;;;;;;;;;;;;;;;11.72;65.61;96009.41;4233692;28;5658;-62
2024/01/03 03:04:54;;;;;;;;;;;;;;;11.72;65.99;96014.72;4233398;28;5642;-62
2024/01/03 03:06:56;;;;;;;;;;;;;;;11.72;65.94;96015.53;4241704;27;5076;-62
2024/01/03 03:09:00;;;;;;;;;;;;;;;11.75;65.90;96019.56;4241472;27;5621;-62
2024/01/03 03:11:19;;;;;;;;;;;;;;;11.76;65.82;96015.88;4238307;27;5706;-62
2024/01/03 03:13:23;;;;;;;;;;;;;;;11.76;65.42;96006.09;4243022;27;5666;-62
2024/01/03 03:15:26;;;;;;;;;;;;;;;11.80;65.76;96009.16;4248073;27;5730;-62
2024/01/03 03:17:29;;;;;;;;;;;;;;;11.81;65.58;96016.09;4250495;27;5658;-62
2024/01/03 03:19:32;;;;;;;;;;;;;;;11.80;65.46;96022.41;4248817;27;5724;-62
2024/01/03 03:21:35;;;;;;;;;;;;;;;11.82;65.45;96025.66;4240076;27;5740;-62
2024/01/03 03:23:38;;;;;;;;;;;;;;;11.81;65.28;96022.19;4236513;27;5694;-62
2024/01/03 03:25:41;;;;;;;;;;;;;;;11.79;65.54;96031.34;4236654;28;5753;-62
2024/01/03 03:27:44;;;;;;;;;;;;;;;11.80;65.68;96025.88;4241792;27;5636;-61
2024/01/03 03:29:47;;;;;;;;;;;;;;;11.79;65.38;96026.91;4247863;27;6373;-62
2024/01/03 03:31:49;;;;;;;;;;;;;;;11.78;65.45;96027.91;4242938;27;5621;-62
2024/01/03 03:33:52;;;;;;;;;;;;;;;11.78;65.39;96024.41;4238468;27;6485;-61
2024/01/03 03:35:55;;;;;;;;;;;;;;;11.77;65.51;96043.97;4244988;27;5666;-62
2024/01/03 03:37:58;;;;;;;;;;;;;;;11.77;65.68;96034.19;4236083;27;6468;-62
2024/01/03 03:40:01;;;;;;;;;;;;;;;11.76;65.78;96032.56;4244914;27;5654;-62
2024/01/03 03:42:04;;;;;;;;;;;;;;;11.76;65.60;96037.88;4236333;27;5672;-62
2024/01/03 03:44:08;;;;;;;;;;;;;;;11.77;65.56;96038.69;4236962;27;5658;-61
2024/01/03 03:46:13;;;;;;;;;;;;;;;11.78;65.53;96041.13;4245398;27;6429;-62
2024/01/03 03:48:16;;;;;;;;;;;;;;;11.80;65.65;96040.94;4241849;27;5645;-62
2024/01/03 03:50:19;;;;;;;;;;;;;;;11.80;65.63;96039.09;4242990;27;5789;-62
2024/01/03 03:52:22;;;;;;;;;;;;;;;11.81;65.62;96042.56;4244635;27;5624;-62
2024/01/03 03:54:25;;;;;;;;;;;;;;;11.83;65.33;96036.00;4244541;27;5629;-63
2024/01/03 03:56:29;;;;;;;;;;;;;;;11.87;65.34;96039.84;4236003;28;5650;-63
2024/01/03 03:58:33;;;;;;;;;;;;;;;11.91;65.27;96045.53;4244397;27;5840;-61
2024/01/03 04:00:37;;;;;;;;;;;;;;;11.90;65.18;96049.19;4236013;28;5642;-62
2024/01/03 04:02:39;;;;;;;;;;;;;;;11.88;65.43;96045.94;4240666;27;5715;-62
2024/01/03 04:04:42;;;;;;;;;;;;;;;11.86;65.54;96046.16;4245913;27;5641;-62
2024/01/03 04:06:45;;;;;;;;;;;;;;;11.83;65.59;96053.75;4244049;27;5754;-63
2024/01/03 04:08:48;;;;;;;;;;;;;;;11.81;65.61;96040.72;4247054;27;5638;-62
2024/01/03 04:10:52;;;;;;;;;;;;;;;11.80;65.61;96043.59;4244473;27;5744;-62
2024/01/03 04:13:01;;;;;;;;;;;;;;;11.79;65.24;96048.09;4234458;28;5744;-62
2024/01/03 04:15:05;;;;;;;;;;;;;;;11.81;65.26;96045.22;4235821;28;5650;-62
2024/01/03 04:17:09;;;;;;;;;;;;;;;11.81;65.23;96040.72;4235436;27;5732;-62
2024/01/03 04:19:12;;;;;;;;;;;;;;;11.83;65.18;96048.44;4244127;27;5640;-62
2024/01/03 04:21:15;;;;;;;;;;;;;;;11.84;65.22;96044.75;4245006;27;5720;-62
2024/01/03 04:23:18;;;;;;;;;;;;;;;11.84;65.35;96058.81;4243957;27;6486;-62
2024/01/03 04:25:20;;;;;;;;;;;;;;;11.85;65.10;96052.50;4252380;27;5624;-62
2024/01/03 04:27:25;;;;;;;;;;;;;;;11.86;65.01;96059.41;4250118;27;5628;-62
2024/01/03 04:29:27;;;;;;;;;;;;;;;11.84;64.96;96056.16;4244025;27;5661;-62
2024/01/03 04:31:30;;;;;;;;;;;;;;;11.84;64.85;96058.00;4235486;28;5701;-62
2024/01/03 04:33:37;;;;;;;;;;;;;;;11.86;65.31;96069.19;4243630;27;5650;-62
2024/01/03 04:35:40;;;;;;;;;;;;;;;11.86;65.15;96053.28;4235362;28;5710;-61
2024/01/03 04:37:43;;;;;;;;;;;;;;;11.85;65.06;96057.78;4235616;27;5654;-62
2024/01/03 04:39:45;;;;;;;;;;;;;;;11.88;65.08;96051.22;4235297;28;5637;-62
2024/01/03 04:41:48;;;;;;;;;;;;;;;11.91;64.89;96066.72;4244007;27;5670;-62
2024/01/03 04:43:51;;;;;;;;;;;;;;;11.94;65.06;96066.25;4250267;27;5659;-62
2024/01/03 04:45:54;;;;;;;;;;;;;;;11.93;64.92;96059.34;4243842;27;5609;-63
2024/01/03 04:47:56;;;;;;;;;;;;;;;11.91;64.84;96061.41;4244818;27;5650;-63
2024/01/03 04:50:01;;;;;;;;;;;;;;;11.89;64.78;96068.75;4238734;27;5653;-62
2024/01/03 04:52:04;;;;;;;;;;;;;;;11.89;64.66;96071.38;4243686;27;5766;-62
2024/01/03 04:54:07;;;;;;;;;;;;;;;11.90;64.76;96073.03;4243853;27;5637;-62
2024/01/03 04:56:11;;;;;;;;;;;;;;;11.89;64.43;96059.00;4243877;27;5792;-62
2024/01/03 04:58:14;;;;;;;;;;;;;;;11.88;64.64;96061.81;4243570;27;5645;-62
2024/01/03 05:00:17;;;;;;;;;;;;;;;11.90;64.41;96076.50;4244245;27;5644;-62
2024/01/03 05:02:20;;;;;;;;;;;;;;;11.90;64.61;96075.69;4248363;27;5625;-63
2024/01/03 05:04:23;;;;;;;;;;;;;;;11.89;64.34;96080.19;4235172;28;5769;-62
2024/01/03 05:06:28;;;;;;;;;;;;;;;11.89;64.63;96076.69;4243314;27;5996;-63
2024/01/03 05:08:31;;;;;;;;;;;;;;;11.90;64.27;96073.03;4234627;27;5662;-63
2024/01/03 05:10:34;;;;;;;;;;;;;;;11.91;64.53;96066.72;4235017;28;5649;-61
2024/01/03 05:12:37;;;;;;;;;;;;;;;11.89;64.26;96074.03;4234763;28;5642;-62
2024/01/03 05:14:40;;;;;;;;;;;;;;;11.89;64.39;96068.75;4234896;27;5737;-63
2024/01/03 05:16:43;;;;;;;;;;;;;;;11.91;64.19;96064.88;4243118;27;5104;-62
2024/01/03 05:18:46;;;;;;;;;;;;;;;11.93;63.98;96065.47;4239914;27;5715;-62
2024/01/03 05:20:49;;;;;;;;;;;;;;;11.95;64.10;96067.88;4245096;27;5105;-62
2024/01/03 05:22:55;;;;;;;;;;;;;;;11.96;63.77;96058.91;4251569;27;6439;-62
2024/01/03 05:24:58;;;;;;;;;;;;;;;11.98;63.73;96062.13;4244498;27;5900;-62
2024/01/03 05:27:01;;;;;;;;;;;;;;;12.00;64.06;96065.38;4250908;27;5780;-62
2024/01/03 05:29:04;;;;;;;;;;;;;;;12.01;63.98;96060.91;4235073;27;5649;-62
2024/01/03 05:31:07;;;;;;;;;;;;;;;12.02;63.90;96062.53;4234467;28;5709;-62
2024/01/03 05:33:10;;;;;;;;;;;;;;;12.02;63.79;96057.22;4233856;28;5650;-62
2024/01/03 05:35:14;;;;;;;;;;;;;;;12.03;63.54;96064.94;4234301;28;5658;-63
2024/01/03 05:37:17;;;;;;;;;;;;;;;12.06;63.89;96066.34;4233283;28;5629;-63
2024/01/03 05:39:21;;;;;;;;;;;;;;;12.05;63.62;96068.19;4242664;27;5624;-63
2024/01/03 05:41:24;;;;;;;;;;;;;;;12.05;63.62;96056.78;4245181;27;6309;-63
2024/01/03 05:43:28;;;;;;;;;;;;;;;12.05;63.55;96065.53;4248620;27;5650;-63
2024/01/03 05:45:31;;;;;;;;;;;;;;;12.04;63.60;96071.06;4234469;28;5838;-63
2024/01/03 05:47:33;;;;;;;;;;;;;;;12.02;63.43;96066.00;4237746;27;5732;-63
2024/01/03 05:49:36;;;;;;;;;;;;;;;12.00;63.63;96073.31;4242589;27;5653;-63
2024/01/03 05:51:39;;;;;;;;;;;;;;;11.99;63.67;96073.53;4238438;27;5764;-62
2024/01/03 05:53:47;;;;;;;;;;;;;;;11.97;63.72;96081.72;4239336;27;5858;-61
2024/01/03 05:55:52;;;;;;;;;;;;;;;11.97;63.50;96087.00;4236762;27;5646;-62
2024/01/03 05:57:54;;;;;;;;;;;;;;;11.95;63.36;96087.22;4241180;27;5633;-61
2024/01/03 05:59:58;;;;;;;;;;;;;;;11.91;63.67;96078.13;4243945;27;5659;-62
2024/01/03 06:02:00;;;;;;;;;;;;;;;11.90;63.32;96080.97;4234280;27;5721;-61
2024/01/03 06:04:03;;;;;;;;;;;;;;;11.89;63.55;96079.34;4247635;27;5632;-61
2024/01/03 06:06:06;;;;;;;;;;;;;;;11.89;63.57;96080.19;4242874;27;5646;-62
2024/01/03 06:08:08;;;;;;;;;;;;;;;11.91;63.47;96082.59;4246164;27;6443;-62
2024/01/03 06:10:12;;;;;;;;;;;;;;;11.90;63.52;96095.03;4235785;27;5654;-61
2024/01/03 06:12:17;;;;;;;;;;;;;;;11.89;63.68;96093.41;4249234;27;5628;-62
2024/01/03 06:14:19;;;;;;;;;;;;;;;11.89;63.45;96095.22;4240664;27;5733;-63
2024/01/03 06:16:22;;;;;;;;;;;;;;;11.89;63.46;96097.88;4242621;27;5621;-63
2024/01/03 06:18:25;;;;;;;;;;;;;;;11.89;63.35;96100.53;4236386;27;5649;-63
2024/01/03 06:20:27;;;;;;;;;;;;;;;11.88;63.61;96104.22;4248104;27;5630;-63
2024/01/03 06:22:30;;;;;;;;;;;;;;;11.91;63.49;96106.44;4245939;27;5617;-62
2024/01/03 06:24:33;;;;;;;;;;;;;;;11.91;63.42;96103.78;4251127;27;6324;-62
2024/01/03 06:26:35;;;;;;;;;;;;;;;11.93;63.41;96101.72;4238329;27;5662;-62
2024/01/03 06:28:39;;;;;;;;;;;;;;;11.95;63.71;96112.91;4242294;27;5646;-61
2024/01/03 06:30:43;;;;;;;;;;;;;;;11.96;63.60;96117.19;4234073;28;5843;-61
2024/01/03 06:32:46;;;;;;;;;;;;;;;11.94;63.60;96124.53;4233821;28;5654;-62
2024/01/03 06:34:49;;;;;;;;;;;;;;;11.94;63.25;96129.84;4242336;27;5747;-62
2024/01/03 06:36:52;;;;;;;;;;;;;;;11.90;63.48;96133.97;4239805;27;5653;-63
2024/01/03 06:38:56;;;;;;;;;;;;;;;11.89;63.23;96127.84;4242216;27;5736;-63
2024/01/03 06:40:59;;;;;;;;;;;;;;;11.90;63.23;96131.31;4242710;27;5770;-62
2024/01/03 06:43:01;;;;;;;;;;;;;;;11.89;63.25;96129.66;4242387;27;5797;-62
2024/01/03 06:45:07;;;;;;;;;;;;;;;11.87;63.17;96134.38;4236483;27;5087;-63
2024/01/03 06:47:10;;;;;;;;;;;;;;;11.87;63.38;96140.47;4245633;27;5733;-63
2024/01/03 06:49:13;;;;;;;;;;;;;;;11.88;63.33;96133.34;4246517;27;5628;-62
2024/01/03 06:51:21;;;;;;;;;;;;;;;11.87;63.17;96131.72;4244571;27;5638;-62
2024/01/03 06:53:23;;;;;;;;;;;;;;;11.91;63.10;96146.16;4239487;27;5642;-62
2024/01/03 06:55:26;;;;;;;;;;;;;;;11.90;63.21;96126.00;4242956;27;5860;-62
2024/01/03 06:57:29;;;;;;;;;;;;;;;11.93;62.88;96139.63;4245722;27;5732;-62
2024/01/03 06:59:35;;;;;;;;;;;;;;;11.92;62.73;96134.53;4240719;27;5661;-63
2024/01/03 07:01:39;;;;;;;;;;;;;;;11.94;62.87;96137.78;4245744;27;5628;-61
2024/01/03 07:03:42;;;;;;;;;;;;;;;11.95;62.72;96137.56;4245511;27;5779;-62
2024/01/03 07:05:45;;;;;;;;;;;;;;;11.97;62.92;96134.69;4248826;27;6377;-62
2024/01/03 07:07:48;;;;;;;;;;;;;;;11.94;62.33;96135.94;4236813;28;5694;-62
2024/01/03 07:09:52;;;;;;;;;;;;;;;11.96;62.30;96122.47;4237139;27;5646;-62
2024/01/03 07:11:56;;;;;;;;;;;;;;;11.97;62.26;96134.69;4245464;27;5649;-62
2024/01/03 07:13:59;;;;;;;;;;;;;;;11.98;62.16;96143.44;4252938;27;5742;-61
2024/01/03 07:16:02;;;;;;;;;;;;;;;11.97;61.96;96134.69;4237514;27;5654;-62
2024/01/03 07:18:07;;;;;;;;;;;;;;;11.96;62.13;96148.97;4236811;27;5642;-61
2024/01/03 07:20:10;;;;;;;;;;;;;;;11.97;62.17;96144.47;4245407;27;5621;-62
2024/01/03 07:22:14;;;;;;;;;;;;;;;11.95;61.75;96137.56;4249607;27;5641;-62
2024/01/03 07:24:17;;;;;;;;;;;;;;;11.97;61.85;96134.69;4236828;28;5918;-61
2024/01/03 07:26:20;;;;;;;;;;;;;;;11.98;61.87;96128.34;4246118;27;7668;-62
2024/01/03 07:28:22;;;;;;;;;;;;;;;11.99;61.70;96139.75;4244922;27;5944;-62
2024/01/03 07:30:26;;;;;;;;;;;;;;;12.00;61.43;96142.19;4245156;27;5634;-63
2024/01/03 07:32:29;;;;;;;;;;;;;;;12.01;61.38;96135.91;4241441;27;6404;-62
2024/01/03 07:34:34;;;;;;;;;;;;;;;12.02;61.42;96132.22;4243731;27;5756;-62
2024/01/03 07:36:38;;;;;;;;;;;;;;;12.00;61.48;96134.25;4245846;27;5686;-62
2024/01/03 07:38:44;;;;;;;;;;;;;;;12.01;61.38;96135.09;4250662;27;5809;-62
2024/01/03 07:40:46;;;;;;;;;;;;;;;12.01;61.09;96140.38;4232563;27;5639;-62
2024/01/03 07:42:49;;;;;;;;;;;;;;;12.01;60.91;96135.91;4230185;28;5770;-62
2024/01/03 07:44:52;;;;;;;;;;;;;;;12.00;60.83;96134.25;4226124;28;5665;-65
2024/01/03 07:46:56;;;;;;;;;;;;;;;12.00;60.97;96131.59;4219342;28;5809;-61
2024/01/03 07:48:59;;;;;;;;;;;;;;;11.99;60.76;96145.88;4234226;28;5642;-62
2024/01/03 07:51:04;;;;;;;;;;;;;;;11.98;60.30;96149.56;4236397;28;5646;-61
2024/01/03 07:53:07;;;;;;;;;;;;;;;11.97;60.36;96140.00;4219166;28;5683;-62
2024/01/03 07:55:10;;;;;;;;;;;;;;;12.00;60.23;96142.19;4219324;28;5692;-62
2024/01/03 07:57:13;;;;;;;;;;;;;;;12.00;60.56;96139.53;4235361;28;5706;-63
2024/01/03 07:59:16;;;;;;;;;;;;;;;12.03;60.37;96151.56;4227867;28;5645;-62
2024/01/03 08:01:21;;;;;;;;;;;;;;;12.05;60.34;96147.66;4231136;28;5974;-62
2024/01/03 08:03:24;;;;;;;;;;;;;;;12.07;60.41;96139.50;4224203;28;5871;-62
2024/01/03 08:05:27;;;;;;;;;;;;;;;12.07;59.96;96135.00;4223341;28;5650;-63
2024/01/03 08:07:30;;;;;;;;;;;;;;;12.07;60.23;96132.34;4227575;28;5649;-63
2024/01/03 08:09:34;;;;;;;;;;;;;;;12.09;59.83;96137.44;4225707;28;5736;-63
2024/01/03 08:11:37;;;;;;;;;;;;;;;12.10;60.10;96129.25;4223151;28;5667;-63
2024/01/03 08:13:39;;;;;;;;;;;;;;;12.11;59.89;96141.47;4227410;28;5683;-63
2024/01/03 08:15:42;;;;;;;;;;;;;;;12.14;59.74;96149.00;4227083;28;5663;-63
2024/01/03 08:17:45;;;;;;;;;;;;;;;12.14;59.80;96145.56;4232538;28;5645;-64
2024/01/03 08:19:48;;;;;;;;;;;;;;;12.14;59.70;96133.13;4221157;28;5703;-62
2024/01/03 08:21:52;;;;;;;;;;;;;;;12.16;59.73;96123.09;4218427;28;5789;-63
2024/01/03 08:23:56;;;;;;;;;;;;;;;12.17;59.43;96123.91;4223976;28;5688;-63
2024/01/03 08:26:00;;;;;;;;;;;;;;;12.18;59.38;96123.69;4233705;28;5827;-62
2024/01/03 08:28:03;;;;;;;;;;;;;;;12.19;59.26;96125.31;4226985;27;5634;-62
2024/01/03 08:30:07;;;;;;;;;;;;;;;12.19;59.42;96124.50;4218670;28;5759;-62
2024/01/03 08:32:11;;;;;;;;;;;;;;;12.19;59.16;96130.59;4226648;28;6379;-62
2024/01/03 08:34:14;;;;;;;;;;;;;;;12.20;58.96;96115.50;4221723;28;5731;-63
2024/01/03 08:36:17;;;;;;;;;;;;;;;12.21;58.84;96125.88;4231652;28;5861;-62
2024/01/03 08:38:20;;;;;;;;;;;;;;;12.20;58.78;96118.97;4232743;27;5654;-63
2024/01/03 08:40:25;;;;;;;;;;;;;;;12.19;58.66;96121.84;4224849;28;5667;-61
2024/01/03 08:42:28;;;;;;;;;;;;;;;12.20;58.69;96129.56;4228725;28;5741;-62
2024/01/03 08:44:31;;;;;;;;;;;;;;;12.21;58.68;96120.59;4233653;28;5819;-62
2024/01/03 08:46:39;;;;;;;;;;;;;;;12.22;58.68;96126.69;4226508;28;5788;-62
2024/01/03 08:48:43;;;;;;;;;;;;;;;12.27;58.45;96134.00;4221698;28;5671;-62
2024/01/03 08:50:48;;;;;;;;;;;;;;;12.26;58.20;96117.31;4231869;28;5641;-62
2024/01/03 08:52:51;;;;;;;;;;;;;;;12.27;57.98;96126.88;4231127;28;5662;-62
2024/01/03 08:54:54;;;;;;;;;;;;;;;12.27;58.23;96134.81;4224165;28;5828;-62
2024/01/03 08:56:58;;;;;;;;;;;;;;;12.30;58.26;96118.47;4222994;28;5752;-62
2024/01/03 08:59:04;;;;;;;;;;;;;;;12.29;57.86;96134.59;4234817;28;5658;-62
2024/01/03 09:01:07;;;;;;;;;;;;;;;12.27;57.75;96134.00;4229941;28;5658;-63
2024/01/03 09:03:10;;;;;;;;;;;;;;;12.32;57.99;96136.81;4226815;28;5662;-63
2024/01/03 09:05:13;;;;;;;;;;;;;;;12.33;57.78;96123.31;4233553;28;5730;-63
2024/01/03 09:07:16;;;;;;;;;;;;;;;12.33;57.49;96128.63;4229761;28;5752;-62
2024/01/03 09:09:18;;;;;;;;;;;;;;;12.35;57.52;96136.38;4217745;28;6981;-67
2024/01/03 09:11:25;;;;;;;;;;;;;;;12.37;57.63;96121.06;4227015;28;5762;-66
2024/01/03 09:13:33;;;;;;;;;;;;;;;12.40;57.27;96129.38;4227878;28;5668;-65
2024/01/03 09:15:36;;;;;;;;;;;;;;;12.43;57.46;96118.31;4224483;28;5709;-65
2024/01/03 09:17:42;;;;;;;;;;;;;;;12.45;57.41;96123.41;4232848;28;5661;-65
2024/01/03 09:19:46;;;;;;;;;;;;;;;12.45;57.30;96120.75;4229105;28;5661;-65
2024/01/03 09:21:49;;;;;;;;;;;;;;;12.45;57.33;96116.25;4225032;28;5695;-65
2024/01/03 09:23:51;;;;;;;;;;;;;;;12.46;57.07;96117.09;4231101;28;5689;-63
2024/01/03 09:25:55;;;;;;;;;;;;;;;12.44;57.10;96113.81;4231440;28;5650;-64
2024/01/03 09:27:58;;;;;;;;;;;;;;;12.45;56.92;96112.78;4233962;28;6002;-65
2024/01/03 09:30:09;;;;;;;;;;;;;;;12.47;56.83;96124.81;4231888;28;5799;-65
2024/01/03 09:32:13;;;;;;;;;;;;;;;12.49;56.84;96125.41;4227904;28;5666;-65
2024/01/03 09:34:15;;;;;;;;;;;;;;;12.50;56.90;96126.22;4226936;28;5832;-65
2024/01/03 09:36:18;;;;;;;;;;;;;;;12.49;56.71;96136.00;4224093;28;5645;-65
2024/01/03 09:38:27;;;;;;;;;;;;;;;12.50;56.75;96126.22;4222929;28;5818;-66
2024/01/03 09:40:31;;;;;;;;;;;;;;;12.53;56.54;96117.81;4223194;28;5824;-69
2024/01/03 09:42:35;;;;;;;;;;;;;;;12.56;56.49;96127.97;4229848;28;5658;-65
2024/01/03 09:44:39;;;;;;;;;;;;;;;12.58;56.54;96136.53;4231979;28;5638;-65
2024/01/03 09:46:43;;;;;;;;;;;;;;;12.60;56.27;96129.16;4232823;28;5650;-67
2024/01/03 09:48:48;;;;;;;;;;;;;;;12.58;56.45;96133.06;4230865;28;5825;-65
2024/01/03 09:50:53;;;;;;;;;;;;;;;12.61;56.40;96140.56;4227983;28;5658;-65
2024/01/03 09:52:57;;;;;;;;;;;;;;;12.61;56.18;96146.69;4224979;28;5891;-64
2024/01/03 09:55:00;;;;;;;;;;;;;;;12.61;56.19;96136.09;4224332;28;5646;-65
2024/01/03 09:57:04;;;;;;;;;;;;;;;12.63;56.13;96133.22;4218154;28;5667;-65
2024/01/03 09:59:08;;;;;;;;;;;;;;;12.63;56.15;96139.31;4226136;28;5638;-66
2024/01/03 10:01:11;;;;;;;;;;;;;;;12.64;56.34;96137.47;4218083;28;5871;-65
2024/01/03 10:03:16;;;;;;;;;;;;;;;12.64;56.07;96137.47;4225497;28;7278;-65
2024/01/03 10:05:19;;;;;;;;;;;;;;;12.64;55.98;96129.53;4224282;28;5763;-65
2024/01/03 10:07:32;;;;;;;;;;;;;;;12.67;56.32;96129.06;4225385;28;5804;-66
2024/01/03 10:09:44;;;;;;;;;;;;;;;12.69;56.24;96132.34;4225763;28;5663;-65
2024/01/03 10:11:51;;;;;;;;;;;;;;;12.72;56.24;96124.72;4231546;28;5646;-65
2024/01/03 10:13:55;;;;;;;;;;;;;;;12.74;56.32;96122.66;4225660;28;5766;-65
2024/01/03 10:16:04;;;;;;;;;;;;;;;12.77;56.19;96114.25;4218636;28;5659;-66
2024/01/03 10:18:06;;;;;;;;;;;;;;;12.79;56.10;96114.03;4224126;28;5787;-66
2024/01/03 10:20:26;;;;;;;;;;;;;;;12.83;56.25;96117.88;4225677;28;5646;-65
2024/01/03 10:22:30;;;;;;;;;;;;;;;12.82;56.17;96108.28;4228798;28;5641;-65
2024/01/03 10:24:33;;;;;;;;;;;;;;;12.83;56.00;96101.97;4230903;27;5777;-65
2024/01/03 10:26:35;;;;;;;;;;;;;;;12.83;56.09;96107.25;4229846;28;5702;-65
2024/01/03 10:28:38;;;;;;;;;;;;;;;12.83;55.95;96105.41;4229968;28;5663;-65
2024/01/03 10:30:41;;;;;;;;;;;;;;;12.85;56.05;96099.06;4225511;28;5787;-66
2024/01/03 10:32:43;;;;;;;;;;;;;;;12.87;56.38;96094.34;4217306;28;5667;-66
2024/01/03 10:34:47;;;;;;;;;;;;;;;12.89;56.09;96084.31;4225656;28;5731;-66
2024/01/03 10:36:52;;;;;;;;;;;;;;;12.87;56.33;96083.75;4223539;28;5650;-66
2024/01/03 10:38:57;;;;;;;;;;;;;;;12.86;56.47;96090.88;4225259;28;5716;-67
2024/01/03 10:41:00;;;;;;;;;;;;;;;12.85;56.30;96094.56;4225543;28;5642;-64
2024/01/03 10:43:04;;;;;;;;;;;;;;;12.89;56.51;96094.94;4225649;28;5654;-64
2024/01/03 10:45:08;;;;;;;;;;;;;;;12.91;56.38;96084.91;4225744;28;5799;-65
2024/01/03 10:47:12;;;;;;;;;;;;;;;12.94;56.35;96081.81;4225475;28;5653;-65
2024/01/03 10:49:16;;;;;;;;;;;;;;;12.96;56.56;96090.34;4225517;28;5645;-65
2024/01/03 10:51:22;;;;;;;;;;;;;;;12.95;56.57;96086.09;4226097;28;5605;-64
2024/01/03 10:53:34;;;;;;;;;;;;;;;12.97;56.63;96097.28;4231520;28;5650;-65